createdAt,value
2018-06-09T00:02:05.196Z,18.70
2018-06-09T00:04:33.507Z,19.97
2018-06-09T00:07:01.674Z,20.40
2018-06-09T00:09:29.821Z,18.87
2018-06-09T00:11:58.797Z,21.10
2018-06-09T00:14:26.931Z,19.50
2018-06-09T00:16:55.156Z,19.40
2018-06-09T00:19:23.356Z,20.27
2018-06-09T00:21:51.524Z,19.43
2018-06-09T00:24:19.683Z,19.97
2018-06-09T00:26:47.846Z,19.70
2018-06-09T00:29:16.026Z,18.87
2018-06-09T00:31:44.194Z,20.53
2018-06-09T00:34:12.342Z,19.50
2018-06-09T00:36:40.540Z,18.17
2018-06-09T00:39:08.668Z,19.20
2018-06-09T00:41:36.866Z,19.40
2018-06-09T00:44:05.076Z,20.33
2018-06-09T00:46:33.238Z,19.70
2018-06-09T00:49:01.448Z,18.97
2018-06-09T00:51:29.919Z,18.93
2018-06-09T00:53:58.727Z,17.67
2018-06-09T00:56:46.510Z,18.70
2018-06-09T00:59:14.684Z,20.13
2018-06-09T01:01:42.975Z,18.37
2018-06-09T01:04:11.222Z,19.03
2018-06-09T01:06:39.406Z,19.90
2018-06-09T01:09:09.054Z,18.63
2018-06-09T01:11:37.263Z,19.70
2018-06-09T01:14:05.478Z,20.33
2018-06-09T01:16:33.610Z,18.90
2018-06-09T01:19:01.801Z,18.90
2018-06-09T01:21:29.957Z,18.60
2018-06-09T01:23:59.053Z,20.30
2018-06-09T01:26:27.225Z,19.00
2018-06-09T01:28:55.382Z,19.53
2018-06-09T01:31:23.609Z,18.00
2018-06-09T01:33:51.781Z,19.40
2018-06-09T01:36:19.943Z,19.43
2018-06-09T01:38:48.104Z,20.30
2018-06-09T01:41:16.270Z,21.63
2018-06-09T01:43:44.455Z,18.00
2018-06-09T01:46:12.705Z,17.70
2018-06-09T01:48:40.893Z,19.00
2018-06-09T01:51:09.067Z,19.70
2018-06-09T01:53:37.228Z,18.80
2018-06-09T01:56:05.433Z,20.07
2018-06-09T01:58:33.609Z,18.03
2018-06-09T02:01:01.771Z,17.07
2018-06-09T02:03:29.947Z,18.17
2018-06-09T02:05:58.727Z,20.30
2018-06-09T02:08:26.973Z,20.67
2018-06-09T02:10:55.180Z,18.33
2018-06-09T02:13:23.330Z,18.83
2018-06-09T02:15:51.555Z,19.40
2018-06-09T02:18:19.725Z,17.50
2018-06-09T02:20:47.962Z,18.63
2018-06-09T02:23:16.159Z,18.10
2018-06-09T02:25:44.314Z,17.40
2018-06-09T02:28:12.530Z,18.87
2018-06-09T02:30:40.685Z,18.83
2018-06-09T02:33:08.812Z,18.83
2018-06-09T02:35:37.070Z,19.37
2018-06-09T02:38:05.283Z,17.83
2018-06-09T02:40:33.519Z,15.80
2018-06-09T02:43:01.942Z,20.20
2018-06-09T02:45:30.071Z,19.03
2018-06-09T02:47:59.251Z,20.70
2018-06-09T02:50:27.407Z,16.63
2018-06-09T02:52:55.587Z,19.57
2018-06-09T02:55:23.839Z,21.27
2018-06-09T02:57:51.985Z,17.47
2018-06-09T03:00:20.309Z,17.13
2018-06-09T03:02:48.498Z,21.43
2018-06-09T03:05:16.717Z,19.73
2018-06-09T03:07:44.865Z,20.10
2018-06-09T03:10:13.044Z,19.83
2018-06-09T03:12:41.217Z,19.00
2018-06-09T03:15:09.383Z,18.40
2018-06-09T03:17:37.548Z,17.30
2018-06-09T03:20:05.767Z,18.73
2018-06-09T03:22:33.942Z,17.63
2018-06-09T03:25:02.106Z,18.23
2018-06-09T03:27:30.273Z,19.90
2018-06-09T03:29:58.977Z,19.30
2018-06-09T03:32:27.147Z,21.60
2018-06-09T03:34:55.334Z,18.27
2018-06-09T03:37:23.481Z,18.23
2018-06-09T03:39:51.650Z,19.97
2018-06-09T03:42:19.803Z,19.60
2018-06-09T03:44:47.940Z,19.70
2018-06-09T03:47:16.181Z,21.50
2018-06-09T03:49:44.491Z,21.83
2018-06-09T03:52:12.642Z,21.10
2018-06-09T03:54:40.769Z,18.40
2018-06-09T03:57:09.036Z,20.53
2018-06-09T03:59:37.214Z,19.30
2018-06-09T04:02:05.613Z,21.17
2018-06-09T04:04:33.848Z,20.53
2018-06-09T04:07:02.105Z,19.43
2018-06-09T04:09:30.334Z,21.53
2018-06-09T04:11:58.438Z,19.70
2018-06-09T04:14:26.582Z,21.23
2018-06-09T04:16:54.781Z,18.53
2018-06-09T04:19:22.998Z,19.50
2018-06-09T04:21:51.154Z,20.77
2018-06-09T04:24:19.333Z,22.27
2018-06-09T04:26:47.464Z,19.00
2018-06-09T04:29:15.638Z,20.77
2018-06-09T04:31:43.876Z,22.27
2018-06-09T04:34:12.035Z,19.63
2018-06-09T04:36:40.267Z,21.27
2018-06-09T04:39:08.512Z,19.00
2018-06-09T04:41:36.686Z,20.70
2018-06-09T04:44:04.974Z,19.93
2018-06-09T04:46:33.248Z,19.37
2018-06-09T04:49:01.415Z,18.67
2018-06-09T04:51:29.588Z,20.77
2018-06-09T04:53:57.706Z,19.17
2018-06-09T04:56:25.863Z,20.43
2018-06-09T04:58:54.037Z,18.67
2018-06-09T05:01:22.187Z,20.07
2018-06-09T05:03:50.343Z,20.00
2018-06-09T05:06:18.520Z,20.97
2018-06-09T05:08:46.681Z,20.00
2018-06-09T05:11:14.813Z,21.23
2018-06-09T05:13:42.997Z,22.27
2018-06-09T05:16:11.148Z,21.67
2018-06-09T05:18:39.300Z,16.93
2018-06-09T05:21:07.561Z,21.00
2018-06-09T05:23:35.745Z,20.73
2018-06-09T05:26:04.030Z,22.00
2018-06-09T05:28:32.170Z,21.07
2018-06-09T05:31:00.338Z,20.47
2018-06-09T05:33:28.522Z,21.97
2018-06-09T05:35:56.708Z,21.30
2018-06-09T05:38:24.850Z,19.30
2018-06-09T05:40:53.032Z,19.97
2018-06-09T05:43:21.198Z,21.10
2018-06-09T05:45:49.356Z,20.13
2018-06-09T05:48:17.647Z,17.73
2018-06-09T05:50:45.786Z,20.93
2018-06-09T05:53:14.063Z,20.67
2018-06-09T05:55:42.308Z,19.43
2018-06-09T05:58:10.513Z,18.30
2018-06-09T06:00:38.690Z,20.93
2018-06-09T06:03:06.917Z,20.60
2018-06-09T06:05:35.244Z,19.73
2018-06-09T06:08:03.455Z,18.63
2018-06-09T06:10:31.625Z,19.70
2018-06-09T06:12:59.818Z,18.50
2018-06-09T06:15:28.304Z,17.40
2018-06-09T06:17:56.550Z,18.20
2018-06-09T06:20:24.694Z,17.73
2018-06-09T06:22:52.879Z,18.83
2018-06-09T06:25:21.318Z,19.47
2018-06-09T06:27:49.514Z,17.63
2018-06-09T06:30:17.758Z,19.10
2018-06-09T06:32:45.998Z,15.83
2018-06-09T06:35:14.382Z,17.57
2018-06-09T06:37:42.570Z,17.33
2018-06-09T06:40:10.735Z,17.77
2018-06-09T06:42:38.892Z,17.87
2018-06-09T06:45:07.088Z,17.80
2018-06-09T06:47:35.342Z,16.73
2018-06-09T06:50:03.688Z,16.40
2018-06-09T06:52:32.011Z,16.70
2018-06-09T06:55:00.680Z,17.27
2018-06-09T06:57:28.815Z,16.53
2018-06-09T06:59:56.961Z,16.87
2018-06-09T07:02:25.565Z,15.77
2018-06-09T07:04:53.863Z,16.07
2018-06-09T07:07:22.071Z,16.73
2018-06-09T07:09:50.299Z,17.10
2018-06-09T07:12:18.528Z,16.07
2018-06-09T07:14:46.723Z,16.47
2018-06-09T07:17:14.913Z,15.20
2018-06-09T07:19:43.109Z,15.20
2018-06-09T07:22:11.353Z,15.60
2018-06-09T07:24:39.565Z,15.07
2018-06-09T07:27:07.873Z,16.00
2018-06-09T07:29:36.208Z,15.63
2018-06-09T07:32:04.397Z,14.53
2018-06-09T07:34:32.623Z,15.00
2018-06-09T07:37:00.845Z,14.00
2018-06-09T07:39:28.997Z,14.17
2018-06-09T07:41:57.793Z,14.13
2018-06-09T07:44:26.042Z,14.43
2018-06-09T07:46:54.420Z,14.33
2018-06-09T07:49:23.222Z,14.07
2018-06-09T07:51:51.345Z,14.23
2018-06-09T07:54:19.520Z,13.73
2018-06-09T07:56:47.724Z,13.97
2018-06-09T07:59:16.321Z,14.17
2018-06-09T08:01:44.519Z,14.20
2018-06-09T08:04:12.739Z,13.60
2018-06-09T08:06:40.967Z,14.17
2018-06-09T08:09:09.166Z,14.03
2018-06-09T08:11:37.401Z,13.77
2018-06-09T08:14:05.603Z,14.30
2018-06-09T08:16:33.713Z,14.40
2018-06-09T08:19:01.936Z,26.00
2018-06-09T08:21:30.089Z,13.77
2018-06-09T08:23:58.315Z,13.90
2018-06-09T08:26:26.446Z,13.40
2018-06-09T08:28:54.632Z,12.83
2018-06-09T08:31:22.809Z,12.17
2018-06-09T08:33:50.937Z,13.03
2018-06-09T08:36:19.132Z,13.00
2018-06-09T08:38:47.418Z,12.93
2018-06-09T08:41:15.588Z,13.97
2018-06-09T08:43:43.776Z,13.77
2018-06-09T08:46:11.949Z,13.93
2018-06-09T08:48:40.090Z,12.53
2018-06-09T08:51:08.612Z,12.00
2018-06-09T08:53:36.917Z,11.97
2018-06-09T08:56:05.178Z,12.73
2018-06-09T08:58:33.300Z,12.63
2018-06-09T09:01:01.650Z,11.83
2018-06-09T09:03:29.817Z,12.73
2018-06-09T09:05:57.968Z,12.27
2018-06-09T09:08:26.178Z,12.27
2018-06-09T09:10:54.359Z,12.77
2018-06-09T09:13:22.586Z,11.23
2018-06-09T09:15:50.790Z,11.97
2018-06-09T09:18:18.980Z,11.67
2018-06-09T09:20:47.164Z,11.43
2018-06-09T09:23:15.318Z,11.50
2018-06-09T09:25:43.658Z,12.00
2018-06-09T09:28:11.811Z,11.50
2018-06-09T09:30:39.968Z,11.67
2018-06-09T09:33:08.972Z,11.80
2018-06-09T09:35:37.172Z,11.90
2018-06-09T09:38:05.390Z,11.83
2018-06-09T09:40:33.594Z,11.67
2018-06-09T09:43:01.856Z,11.93
2018-06-09T09:45:30.015Z,10.93
2018-06-09T09:47:58.172Z,11.90
2018-06-09T09:50:26.453Z,10.90
2018-06-09T09:52:54.655Z,11.20
2018-06-09T09:55:23.377Z,11.50
2018-06-09T09:58:01.997Z,11.23
2018-06-09T10:00:35.445Z,12.00
2018-06-09T10:03:03.675Z,11.40
2018-06-09T10:05:32.323Z,11.37
2018-06-09T10:08:00.571Z,11.13
2018-06-09T10:10:28.739Z,11.20
2018-06-09T10:12:56.941Z,11.47
2018-06-09T10:15:25.087Z,11.47
2018-06-09T10:17:53.324Z,11.20
2018-06-09T10:20:21.511Z,10.80
2018-06-09T10:22:49.671Z,11.30
2018-06-09T10:25:18.223Z,11.80
2018-06-09T10:27:46.384Z,11.37
2018-06-09T10:30:14.551Z,11.23
2018-06-09T10:32:42.768Z,10.20
2018-06-09T10:35:10.902Z,11.43
2018-06-09T10:37:39.087Z,11.10
2018-06-09T10:40:07.709Z,12.05
2018-06-09T10:42:35.945Z,11.55
2018-06-09T10:45:04.250Z,10.80
2018-06-09T10:47:32.475Z,11.53
2018-06-09T10:50:00.682Z,10.95
2018-06-09T10:52:28.821Z,10.90
2018-06-09T10:54:57.312Z,10.98
2018-06-09T10:57:25.919Z,10.80
2018-06-09T10:59:54.030Z,11.60
2018-06-09T11:02:22.202Z,12.28
2018-06-09T11:04:50.416Z,11.03
2018-06-09T11:07:18.644Z,10.95
2018-06-09T11:09:47.750Z,10.00
2018-06-09T11:12:17.257Z,12.05
2018-06-09T11:14:45.458Z,11.73
2018-06-09T11:17:13.646Z,11.53
2018-06-09T11:19:41.910Z,11.70
2018-06-09T11:22:10.114Z,12.47
2018-06-09T11:24:38.382Z,12.40
2018-06-09T11:27:07.322Z,12.35
2018-06-09T11:29:35.495Z,11.50
2018-06-09T11:32:03.772Z,11.15
2018-06-09T11:34:31.922Z,12.75
2018-06-09T11:37:00.108Z,12.50
2018-06-09T11:39:28.326Z,12.60
2018-06-09T11:41:56.494Z,13.93
2018-06-09T11:44:24.680Z,13.18
2018-06-09T11:46:52.940Z,13.55
2018-06-09T11:49:21.055Z,12.98
2018-06-09T11:51:49.305Z,12.55
2018-06-09T11:54:17.590Z,12.33
2018-06-09T11:56:45.791Z,13.45
2018-06-09T11:59:13.920Z,12.75
2018-06-09T12:01:42.296Z,11.38
2018-06-09T12:04:10.478Z,12.07
2018-06-09T12:06:38.667Z,10.78
2018-06-09T12:09:07.457Z,12.55
2018-06-09T12:11:35.662Z,12.78
2018-06-09T12:14:03.874Z,11.50
2018-06-09T12:16:32.078Z,12.35
2018-06-09T12:19:00.278Z,10.65
2018-06-09T12:21:28.454Z,11.48
2018-06-09T12:23:56.596Z,12.35
2018-06-09T12:26:24.810Z,11.88
2018-06-09T12:28:52.979Z,12.20
2018-06-09T12:31:21.187Z,12.82
2018-06-09T12:33:49.432Z,11.40
2018-06-09T12:36:17.668Z,11.30
2018-06-09T12:38:45.829Z,11.33
2018-06-09T12:41:13.996Z,10.93
2018-06-09T12:43:42.200Z,11.30
2018-06-09T12:46:10.367Z,11.80
2018-06-09T12:48:38.561Z,12.10
2018-06-09T12:51:06.753Z,13.05
2018-06-09T12:53:34.936Z,13.25
2018-06-09T12:56:03.160Z,12.50
2018-06-09T12:58:31.292Z,14.47
2018-06-09T13:00:59.499Z,12.28
2018-06-09T13:03:27.700Z,11.90
2018-06-09T13:05:55.958Z,12.75
2018-06-09T13:08:24.135Z,14.45
2018-06-09T13:10:52.371Z,13.03
2018-06-09T13:13:20.592Z,13.83
2018-06-09T13:15:48.773Z,14.43
2018-06-09T13:18:16.933Z,11.33
2018-06-09T13:20:45.132Z,12.05
2018-06-09T13:23:13.299Z,12.18
2018-06-09T13:25:41.465Z,13.85
2018-06-09T13:28:09.766Z,14.43
2018-06-09T13:30:37.983Z,15.18
2018-06-09T13:33:06.748Z,12.65
2018-06-09T13:35:34.893Z,13.85
2018-06-09T13:38:03.109Z,13.55
2018-06-09T13:40:31.319Z,12.95
2018-06-09T13:42:59.549Z,14.78
2018-06-09T13:45:27.709Z,12.70
2018-06-09T13:47:55.843Z,12.70
2018-06-09T13:50:24.009Z,12.80
2018-06-09T13:52:52.191Z,15.13
2018-06-09T13:55:20.468Z,14.60
2018-06-09T13:57:49.351Z,12.23
2018-06-09T14:00:17.655Z,14.68
2018-06-09T14:02:45.797Z,12.28
2018-06-09T14:05:13.971Z,11.95
2018-06-09T14:07:42.713Z,13.68
2018-06-09T14:10:10.915Z,11.95
2018-06-09T14:12:40.821Z,12.28
2018-06-09T14:15:08.987Z,12.80
2018-06-09T14:17:37.855Z,11.50
2018-06-09T14:20:06.010Z,12.68
2018-06-09T14:22:34.233Z,13.38
2018-06-09T14:25:02.501Z,12.13
2018-06-09T14:27:30.678Z,14.65
2018-06-09T14:29:58.897Z,14.43
2018-06-09T14:32:27.982Z,13.78
2018-06-09T14:34:56.782Z,13.80
2018-06-09T14:37:25.235Z,13.00
2018-06-09T14:39:53.406Z,12.82
2018-06-09T14:42:21.568Z,14.35
2018-06-09T14:44:49.881Z,12.90
2018-06-09T14:47:18.040Z,13.10
2018-06-09T14:49:50.409Z,11.97
2018-06-09T14:52:18.595Z,12.58
2018-06-09T14:54:46.747Z,10.82
2018-06-09T14:57:14.955Z,12.53
2018-06-09T14:59:43.233Z,12.98
2018-06-09T15:02:11.496Z,13.70
2018-06-09T15:04:39.765Z,12.82
2018-06-09T15:07:08.801Z,11.40
2018-06-09T15:09:36.967Z,10.82
2018-06-09T15:12:05.208Z,11.80
2018-06-09T15:14:33.364Z,11.45
2018-06-09T15:17:01.588Z,11.05
2018-06-09T15:19:29.868Z,10.28
2018-06-09T15:21:58.036Z,10.48
2018-06-09T15:24:26.194Z,11.18
2018-06-09T15:26:54.320Z,11.22
2018-06-09T15:29:22.508Z,11.90
2018-06-09T15:31:50.800Z,10.90
2018-06-09T15:34:19.109Z,10.45
2018-06-09T15:36:52.274Z,11.18
2018-06-09T15:39:20.425Z,10.48
2018-06-09T15:41:48.553Z,11.93
2018-06-09T15:44:16.772Z,11.97
2018-06-09T15:46:44.981Z,10.78
2018-06-09T15:49:13.133Z,10.75
2018-06-09T15:51:41.277Z,10.85
2018-06-09T15:54:09.409Z,10.35
2018-06-09T15:56:37.599Z,10.03
2018-06-09T15:59:05.777Z,10.53
2018-06-09T16:01:33.912Z,11.65
2018-06-09T16:04:02.141Z,11.53
2018-06-09T16:06:30.653Z,10.45
2018-06-09T16:08:58.909Z,11.53
2018-06-09T16:11:27.059Z,11.48
2018-06-09T16:13:55.290Z,10.53
2018-06-09T16:16:23.473Z,10.38
2018-06-09T16:18:51.707Z,10.10
2018-06-09T16:21:19.965Z,10.35
2018-06-09T16:23:48.139Z,10.55
2018-06-09T16:26:16.332Z,9.25
2018-06-09T16:28:46.579Z,10.70
2018-06-09T16:31:16.063Z,10.30
2018-06-09T16:33:44.235Z,9.98
2018-06-09T16:36:12.483Z,9.65
2018-06-09T16:38:40.661Z,9.68
2018-06-09T16:41:09.087Z,10.43
2018-06-09T16:43:37.237Z,10.25
2018-06-09T16:46:05.961Z,10.48
2018-06-09T16:48:34.172Z,10.05
2018-06-09T16:51:02.378Z,9.75
2018-06-09T16:53:30.548Z,7.80
2018-06-09T16:55:58.721Z,9.15
2018-06-09T16:58:26.932Z,9.10
2018-06-09T17:00:55.565Z,9.50
2018-06-09T17:03:23.742Z,10.80
2018-06-09T17:05:51.896Z,9.10
2018-06-09T17:08:20.103Z,9.33
2018-06-09T17:10:48.321Z,10.00
2018-06-09T17:13:16.550Z,9.93
2018-06-09T17:15:44.758Z,10.10
2018-06-09T17:18:12.944Z,9.98
2018-06-09T17:20:41.198Z,9.60
2018-06-09T17:23:09.745Z,9.68
2018-06-09T17:25:37.948Z,9.93
2018-06-09T17:28:06.141Z,9.90
2018-06-09T17:30:34.322Z,19.67
2018-06-09T17:33:02.510Z,10.03
2018-06-09T17:35:30.926Z,9.45
2018-06-09T17:37:59.106Z,10.03
2018-06-09T17:40:27.292Z,9.48
2018-06-09T17:42:55.538Z,8.80
2018-06-09T17:45:24.524Z,9.00
2018-06-09T17:47:52.714Z,10.78
2018-06-09T17:50:20.878Z,9.88
2018-06-09T17:52:49.048Z,9.63
2018-06-09T17:55:17.334Z,9.38
2018-06-09T17:57:45.527Z,9.55
2018-06-09T18:00:13.764Z,10.72
2018-06-09T18:02:41.925Z,9.53
2018-06-09T18:05:19.283Z,10.58
2018-06-09T18:07:48.518Z,10.48
2018-06-09T18:10:16.698Z,9.23
2018-06-09T18:12:44.835Z,9.40
2018-06-09T18:15:13.004Z,9.68
2018-06-09T18:17:41.166Z,10.48
2018-06-09T18:20:10.276Z,12.58
2018-06-09T18:22:38.450Z,11.40
2018-06-09T18:25:06.676Z,11.03
2018-06-09T18:27:34.833Z,10.90
2018-06-09T18:30:03.107Z,11.23
2018-06-09T18:32:31.306Z,10.57
2018-06-09T18:34:59.658Z,11.50
2018-06-09T18:37:29.149Z,11.40
2018-06-09T18:39:57.313Z,13.47
2018-06-09T18:42:25.539Z,11.30
2018-06-09T18:44:53.885Z,12.50
2018-06-09T18:47:22.186Z,11.83
2018-06-09T18:49:50.353Z,11.67
2018-06-09T18:52:18.541Z,11.10
2018-06-09T18:54:46.747Z,12.20
2018-06-09T18:57:14.967Z,12.17
2018-06-09T18:59:43.117Z,12.27
2018-06-09T19:02:11.343Z,12.20
2018-06-09T19:04:40.563Z,11.53
2018-06-09T19:07:08.805Z,13.63
2018-06-09T19:09:37.166Z,12.40
2018-06-09T19:12:05.425Z,13.17
2018-06-09T19:14:33.788Z,11.87
2018-06-09T19:17:02.107Z,13.37
2018-06-09T19:19:30.257Z,12.83
2018-06-09T19:21:58.457Z,11.23
2018-06-09T19:24:26.638Z,13.50
2018-06-09T19:26:54.860Z,12.57
2018-06-09T19:29:23.112Z,12.27
2018-06-09T19:31:51.468Z,11.43
2018-06-09T19:34:19.631Z,11.50
2018-06-09T19:36:47.772Z,12.50
2018-06-09T19:39:15.937Z,12.03
2018-06-09T19:41:45.006Z,10.90
2018-06-09T19:44:13.201Z,12.83
2018-06-09T19:46:41.405Z,12.03
2018-06-09T19:49:10.093Z,11.10
2018-06-09T19:51:38.294Z,11.47
2018-06-09T19:54:06.898Z,13.03
2018-06-09T19:56:35.116Z,12.30
2018-06-09T19:59:03.420Z,11.50
2018-06-09T20:01:31.600Z,11.50
2018-06-09T20:04:00.078Z,11.80
2018-06-09T20:06:28.659Z,13.97
2018-06-09T20:08:56.901Z,15.03
2018-06-09T20:11:25.080Z,14.37
2018-06-09T20:13:53.323Z,13.77
2018-06-09T20:16:21.467Z,13.50
2018-06-09T20:18:49.648Z,13.70
2018-06-09T20:21:18.105Z,13.97
2018-06-09T20:23:46.297Z,14.57
2018-06-09T20:26:15.560Z,12.17
2018-06-09T20:28:43.820Z,15.17
2018-06-09T20:31:12.000Z,15.70
2018-06-09T20:33:40.207Z,12.33
2018-06-09T20:36:08.424Z,13.63
2018-06-09T20:38:36.665Z,11.63
2018-06-09T20:41:05.014Z,12.47
2018-06-09T20:43:33.137Z,12.70
2018-06-09T20:46:02.091Z,13.07
2018-06-09T20:48:30.682Z,11.87
2018-06-09T20:50:59.558Z,11.73
2018-06-09T20:53:27.750Z,13.07
2018-06-09T20:55:55.923Z,13.97
2018-06-09T20:58:25.003Z,12.40
2018-06-09T21:00:53.166Z,12.50
2018-06-09T21:03:22.011Z,13.03
2018-06-09T21:05:50.671Z,14.07
2018-06-09T21:08:18.827Z,12.00
2018-06-09T21:10:47.068Z,13.97
2018-06-09T21:13:15.275Z,13.80
2018-06-09T21:15:43.491Z,13.83
2018-06-09T21:18:12.367Z,13.10
2018-06-09T21:20:40.971Z,12.80
2018-06-09T21:23:09.164Z,12.37
2018-06-09T21:25:37.360Z,13.00
2018-06-09T21:28:11.962Z,11.90
2018-06-09T21:30:41.621Z,13.03
2018-06-09T21:33:16.180Z,13.00
2018-06-09T21:35:51.475Z,12.67
2018-06-09T21:38:24.938Z,13.37
2018-06-09T21:40:58.442Z,13.37
2018-06-09T21:43:26.649Z,12.90
2018-06-09T21:45:54.914Z,12.80
2018-06-09T21:48:23.194Z,13.77
2018-06-09T21:50:51.376Z,13.57
2018-06-09T21:53:19.587Z,13.60
2018-06-09T21:55:47.845Z,11.60
2018-06-09T21:58:16.568Z,12.23
2018-06-09T22:00:44.759Z,12.60
2018-06-09T22:03:12.973Z,12.53
2018-06-09T22:05:41.116Z,13.83
2018-06-09T22:08:09.293Z,13.30
2018-06-09T22:10:37.505Z,13.20
2018-06-09T22:13:05.774Z,13.40
2018-06-09T22:15:33.965Z,13.27
2018-06-09T22:18:02.241Z,14.03
2018-06-09T22:20:30.391Z,13.73
2018-06-09T22:22:58.541Z,12.53
2018-06-09T22:25:32.137Z,13.13
2018-06-09T22:28:00.307Z,13.13
2018-06-09T22:30:28.443Z,15.33
2018-06-09T22:32:56.611Z,14.83
2018-06-09T22:35:24.875Z,14.50
2018-06-09T22:37:53.023Z,13.17
2018-06-09T22:40:21.235Z,13.50
2018-06-09T22:42:49.467Z,12.97
2018-06-09T22:45:17.895Z,13.23
2018-06-09T22:47:46.103Z,13.70
2018-06-09T22:50:14.305Z,14.00
2018-06-09T22:52:42.553Z,16.13
2018-06-09T22:55:10.718Z,15.07
2018-06-09T22:57:38.845Z,14.57
2018-06-09T23:00:07.136Z,14.23
2018-06-09T23:02:35.322Z,12.90
2018-06-09T23:05:03.568Z,14.27
2018-06-09T23:07:31.718Z,13.33
2018-06-09T23:09:59.880Z,13.80
2018-06-09T23:12:28.035Z,13.40
2018-06-09T23:14:56.194Z,13.77
2018-06-09T23:17:24.431Z,13.20
2018-06-09T23:19:52.668Z,11.63
2018-06-09T23:22:20.836Z,13.37
2018-06-09T23:24:48.996Z,14.30
2018-06-09T23:27:17.183Z,13.23
2018-06-09T23:29:45.362Z,13.40
2018-06-09T23:32:13.528Z,13.50
2018-06-09T23:34:41.666Z,13.80
2018-06-09T23:37:09.885Z,12.97
2018-06-09T23:39:38.930Z,13.63
2018-06-09T23:42:07.099Z,14.17
2018-06-09T23:44:35.257Z,12.40
2018-06-09T23:47:03.439Z,13.67
2018-06-09T23:49:31.566Z,13.10
2018-06-09T23:51:59.817Z,13.07
2018-06-09T23:54:27.990Z,14.57
2018-06-09T23:56:56.162Z,14.67
2018-06-09T23:59:24.505Z,13.00
